sensor_id;sensor_type;location;lat;lon;timestamp;pressure;altitude;pressure_sealevel;temperature;humidity
59787;BME280;45672;51.612;5.536;2022-11-20T00:01:40;101120.09;;;-1.70;91.05
59787;BME280;45672;51.612;5.536;2022-11-20T00:04:06;101119.38;;;-1.74;90.70
59787;BME280;45672;51.612;5.536;2022-11-20T00:06:31;101129.88;;;-1.76;91.56
59787;BME280;45672;51.612;5.536;2022-11-20T00:08:58;101126.34;;;-1.75;91.53
59787;BME280;45672;51.612;5.536;2022-11-20T00:11:26;101121.84;;;-1.71;91.89
59787;BME280;45672;51.612;5.536;2022-11-20T00:13:54;101120.91;;;-1.70;91.62
59787;BME280;45672;51.612;5.536;2022-11-20T00:16:22;101119.06;;;-1.68;90.92
59787;BME280;45672;51.612;5.536;2022-11-20T00:18:48;101119.94;;;-1.67;90.87
59787;BME280;45672;51.612;5.536;2022-11-20T00:21:16;101116.47;;;-1.68;91.02
59787;BME280;45672;51.612;5.536;2022-11-20T00:23:42;101126.91;;;-1.68;90.75
59787;BME280;45672;51.612;5.536;2022-11-20T00:26:10;101125.22;;;-1.69;91.37
59787;BME280;45672;51.612;5.536;2022-11-20T00:28:35;101121.06;;;-1.73;91.67
59787;BME280;45672;51.612;5.536;2022-11-20T00:33:31;101111.53;;;-1.74;91.18
59787;BME280;45672;51.612;5.536;2022-11-20T00:36:01;101116.09;;;-1.79;91.14
59787;BME280;45672;51.612;5.536;2022-11-20T00:38:26;101114.56;;;-1.83;90.49
59787;BME280;45672;51.612;5.536;2022-11-20T00:40:59;101106.94;;;-1.88;90.63
59787;BME280;45672;51.612;5.536;2022-11-20T00:43:25;101117.66;;;-1.94;90.48
59787;BME280;45672;51.612;5.536;2022-11-20T00:45:56;101116.00;;;-1.97;90.87
59787;BME280;45672;51.612;5.536;2022-11-20T00:48:21;101121.22;;;-1.97;91.60
59787;BME280;45672;51.612;5.536;2022-11-20T00:50:46;101119.53;;;-1.98;91.46
59787;BME280;45672;51.612;5.536;2022-11-20T00:53:12;101115.25;;;-1.99;91.61
59787;BME280;45672;51.612;5.536;2022-11-20T00:55:37;101116.94;;;-1.98;91.60
59787;BME280;45672;51.612;5.536;2022-11-20T00:58:02;101113.56;;;-2.00;91.50
59787;BME280;45672;51.612;5.536;2022-11-20T01:00:28;101112.66;;;-1.99;91.38
59787;BME280;45672;51.612;5.536;2022-11-20T01:02:55;101107.53;;;-2.02;92.22
59787;BME280;45672;51.612;5.536;2022-11-20T01:05:21;101113.69;;;-2.03;91.89
59787;BME280;45672;51.612;5.536;2022-11-20T01:07:46;101115.63;;;-2.08;91.41
59787;BME280;45672;51.612;5.536;2022-11-20T01:10:11;101113.19;;;-2.11;91.56
59787;BME280;45672;51.612;5.536;2022-11-20T01:12:37;101126.13;;;-2.10;91.48
59787;BME280;45672;51.612;5.536;2022-11-20T01:15:02;101127.25;;;-2.15;92.35
59787;BME280;45672;51.612;5.536;2022-11-20T01:17:27;101118.66;;;-2.17;92.55
59787;BME280;45672;51.612;5.536;2022-11-20T01:19:53;101125.47;;;-2.15;92.55
59787;BME280;45672;51.612;5.536;2022-11-20T01:22:18;101119.44;;;-2.15;92.01
59787;BME280;45672;51.612;5.536;2022-11-20T01:24:43;101117.72;;;-2.16;92.74
59787;BME280;45672;51.612;5.536;2022-11-20T01:27:08;101115.13;;;-2.16;92.63
59787;BME280;45672;51.612;5.536;2022-11-20T01:29:34;101106.66;;;-2.21;92.51
59787;BME280;45672;51.612;5.536;2022-11-20T01:31:59;101110.03;;;-2.19;92.73
59787;BME280;45672;51.612;5.536;2022-11-20T01:34:24;101107.44;;;-2.19;92.65
59787;BME280;45672;51.612;5.536;2022-11-20T01:36:51;101113.63;;;-2.22;93.52
59787;BME280;45672;51.612;5.536;2022-11-20T01:39:23;101109.28;;;-2.21;93.15
59787;BME280;45672;51.612;5.536;2022-11-20T01:41:49;101109.34;;;-2.23;93.07
59787;BME280;45672;51.612;5.536;2022-11-20T01:47:21;101111.38;;;-2.30;92.99
59787;BME280;45672;51.612;5.536;2022-11-20T01:49:52;101111.38;;;-2.30;93.21
59787;BME280;45672;51.612;5.536;2022-11-20T01:52:26;101114.88;;;-2.31;93.14
59787;BME280;45672;51.612;5.536;2022-11-20T01:54:58;101105.34;;;-2.32;93.46
59787;BME280;45672;51.612;5.536;2022-11-20T01:57:27;101099.31;;;-2.32;93.67
59787;BME280;45672;51.612;5.536;2022-11-20T02:00:02;101101.91;;;-2.32;93.63
59787;BME280;45672;51.612;5.536;2022-11-20T02:02:28;101106.28;;;-2.33;93.37
59787;BME280;45672;51.612;5.536;2022-11-20T02:04:56;101108.03;;;-2.33;93.17
59787;BME280;45672;51.612;5.536;2022-11-20T02:07:23;101101.22;;;-2.36;93.30
59787;BME280;45672;51.612;5.536;2022-11-20T02:09:50;101112.41;;;-2.34;93.81
59787;BME280;45672;51.612;5.536;2022-11-20T02:12:16;101113.31;;;-2.35;94.00
59787;BME280;45672;51.612;5.536;2022-11-20T02:15:00;101114.28;;;-2.37;93.85
59787;BME280;45672;51.612;5.536;2022-11-20T02:17:26;101108.22;;;-2.38;93.74
59787;BME280;45672;51.612;5.536;2022-11-20T02:19:51;101103.09;;;-2.39;93.84
59787;BME280;45672;51.612;5.536;2022-11-20T02:22:26;101101.38;;;-2.40;93.84
59787;BME280;45672;51.612;5.536;2022-11-20T02:24:53;101102.31;;;-2.41;93.52
59787;BME280;45672;51.612;5.536;2022-11-20T02:27:19;101096.25;;;-2.42;93.87
59787;BME280;45672;51.612;5.536;2022-11-20T02:30:05;101093.63;;;-2.42;93.71
59787;BME280;45672;51.612;5.536;2022-11-20T02:32:34;101093.78;;;-2.45;94.16
59787;BME280;45672;51.612;5.536;2022-11-20T02:35:07;101086.84;;;-2.46;94.33
59787;BME280;45672;51.612;5.536;2022-11-20T02:37:35;101077.38;;;-2.47;94.48
59787;BME280;45672;51.612;5.536;2022-11-20T02:40:02;101086.94;;;-2.48;94.00
59787;BME280;45672;51.612;5.536;2022-11-20T02:42:28;101088.75;;;-2.50;94.42
59787;BME280;45672;51.612;5.536;2022-11-20T02:44:53;101091.31;;;-2.48;93.92
59787;BME280;45672;51.612;5.536;2022-11-20T02:47:18;101093.00;;;-2.47;94.86
59787;BME280;45672;51.612;5.536;2022-11-20T02:49:43;101087.78;;;-2.47;94.36
59787;BME280;45672;51.612;5.536;2022-11-20T02:52:09;101084.59;;;-2.54;94.00
59787;BME280;45672;51.612;5.536;2022-11-20T02:54:34;101092.19;;;-2.49;94.40
59787;BME280;45672;51.612;5.536;2022-11-20T02:56:59;101088.16;;;-2.56;94.62
59787;BME280;45672;51.612;5.536;2022-11-20T02:59:25;101097.09;;;-2.62;94.16
59787;BME280;45672;51.612;5.536;2022-11-20T03:01:50;101086.72;;;-2.64;94.98
59787;BME280;45672;51.612;5.536;2022-11-20T03:04:15;101085.81;;;-2.63;94.99
59787;BME280;45672;51.612;5.536;2022-11-20T03:06:40;101087.50;;;-2.62;95.76
59787;BME280;45672;51.612;5.536;2022-11-20T03:09:06;101089.19;;;-2.61;95.01
59787;BME280;45672;51.612;5.536;2022-11-20T03:11:31;101089.94;;;-2.57;95.47
59787;BME280;45672;51.612;5.536;2022-11-20T03:13:56;101079.97;;;-2.47;95.84
59787;BME280;45672;51.612;5.536;2022-11-20T03:16:23;101081.19;;;-2.35;96.11
59787;BME280;45672;51.612;5.536;2022-11-20T03:18:49;101073.84;;;-2.26;95.58
59787;BME280;45672;51.612;5.536;2022-11-20T03:21:15;101083.66;;;-2.12;95.41
59787;BME280;45672;51.612;5.536;2022-11-20T03:23:41;101075.34;;;-2.01;95.65
59787;BME280;45672;51.612;5.536;2022-11-20T03:26:15;101069.88;;;-1.95;96.00
59787;BME280;45672;51.612;5.536;2022-11-20T03:28:42;101065.72;;;-1.99;94.79
59787;BME280;45672;51.612;5.536;2022-11-20T03:31:12;101059.13;;;-2.08;95.08
59787;BME280;45672;51.612;5.536;2022-11-20T03:33:40;101065.47;;;-2.13;96.16
59787;BME280;45672;51.612;5.536;2022-11-20T03:36:08;101062.22;;;-2.18;96.19
59787;BME280;45672;51.612;5.536;2022-11-20T03:38:34;101061.38;;;-2.19;96.29
59787;BME280;45672;51.612;5.536;2022-11-20T03:41:04;101061.50;;;-2.22;95.77
59787;BME280;45672;51.612;5.536;2022-11-20T03:43:30;101052.13;;;-2.26;95.46
59787;BME280;45672;51.612;5.536;2022-11-20T03:45:56;101056.50;;;-2.27;95.84
59787;BME280;45672;51.612;5.536;2022-11-20T03:48:21;101060.28;;;-2.34;95.85
59787;BME280;45672;51.612;5.536;2022-11-20T03:50:47;101055.41;;;-2.41;96.28
59787;BME280;45672;51.612;5.536;2022-11-20T03:53:13;101053.56;;;-2.39;96.19
59787;BME280;45672;51.612;5.536;2022-11-20T03:55:38;101056.25;;;-2.41;96.26
59787;BME280;45672;51.612;5.536;2022-11-20T03:58:04;101059.91;;;-2.45;96.26
59787;BME280;45672;51.612;5.536;2022-11-20T04:00:29;101054.75;;;-2.47;96.29
59787;BME280;45672;51.612;5.536;2022-11-20T04:02:58;101050.50;;;-2.49;96.10
59787;BME280;45672;51.612;5.536;2022-11-20T04:05:23;101036.91;;;-2.56;96.27
59787;BME280;45672;51.612;5.536;2022-11-20T04:07:49;101041.13;;;-2.53;95.92
59787;BME280;45672;51.612;5.536;2022-11-20T04:10:14;101030.03;;;-2.57;95.75
59787;BME280;45672;51.612;5.536;2022-11-20T04:12:39;101034.38;;;-2.57;96.08
59787;BME280;45672;51.612;5.536;2022-11-20T04:15:05;101042.31;;;-2.61;96.32
59787;BME280;45672;51.612;5.536;2022-11-20T04:17:30;101040.75;;;-2.65;95.93
59787;BME280;45672;51.612;5.536;2022-11-20T04:19:55;101039.13;;;-2.67;96.15
59787;BME280;45672;51.612;5.536;2022-11-20T04:22:21;101037.50;;;-2.70;96.11
59787;BME280;45672;51.612;5.536;2022-11-20T04:24:46;101036.56;;;-2.69;96.63
59787;BME280;45672;51.612;5.536;2022-11-20T04:27:11;101040.13;;;-2.70;96.77
59787;BME280;45672;51.612;5.536;2022-11-20T04:29:36;101037.38;;;-2.67;96.75
59787;BME280;45672;51.612;5.536;2022-11-20T04:32:02;101035.53;;;-2.65;96.95
59787;BME280;45672;51.612;5.536;2022-11-20T04:34:27;101039.00;;;-2.64;96.77
59787;BME280;45672;51.612;5.536;2022-11-20T04:36:52;101031.13;;;-2.63;96.64
59787;BME280;45672;51.612;5.536;2022-11-20T04:39:18;101027.59;;;-2.62;96.13
59787;BME280;45672;51.612;5.536;2022-11-20T04:41:43;101019.84;;;-2.63;96.72
59787;BME280;45672;51.612;5.536;2022-11-20T04:44:08;101023.38;;;-2.64;96.21
59787;BME280;45672;51.612;5.536;2022-11-20T04:46:39;101018.34;;;-2.69;97.14
59787;BME280;45672;51.612;5.536;2022-11-20T04:49:05;101020.19;;;-2.71;96.42
59787;BME280;45672;51.612;5.536;2022-11-20T04:51:30;101030.66;;;-2.72;96.80
59787;BME280;45672;51.612;5.536;2022-11-20T04:53:56;101025.53;;;-2.74;97.08
59787;BME280;45672;51.612;5.536;2022-11-20T04:56:22;101026.06;;;-2.66;96.95
59787;BME280;45672;51.612;5.536;2022-11-20T04:58:47;101024.09;;;-2.61;97.32
59787;BME280;45672;51.612;5.536;2022-11-20T05:01:18;101018.72;;;-2.57;96.94
59787;BME280;45672;51.612;5.536;2022-11-20T05:03:45;101016.78;;;-2.52;97.09
59787;BME280;45672;51.612;5.536;2022-11-20T05:06:12;101008.00;;;-2.50;97.10
59787;BME280;45672;51.612;5.536;2022-11-20T05:08:38;101012.31;;;-2.49;96.75
59787;BME280;45672;51.612;5.536;2022-11-20T05:11:12;101006.09;;;-2.46;96.69
59787;BME280;45672;51.612;5.536;2022-11-20T05:13:38;101001.88;;;-2.49;96.75
59787;BME280;45672;51.612;5.536;2022-11-20T05:18:30;100992.28;;;-2.48;96.87
59787;BME280;45672;51.612;5.536;2022-11-20T05:20:56;101000.94;;;-2.48;97.18
59787;BME280;45672;51.612;5.536;2022-11-20T05:23:22;100998.34;;;-2.48;97.09
59787;BME280;45672;51.612;5.536;2022-11-20T05:25:47;100994.09;;;-2.50;96.92
59787;BME280;45672;51.612;5.536;2022-11-20T05:28:13;101001.88;;;-2.49;97.55
59787;BME280;45672;51.612;5.536;2022-11-20T05:30:38;100997.66;;;-2.51;97.25
59787;BME280;45672;51.612;5.536;2022-11-20T05:33:03;100994.38;;;-2.56;97.08
59787;BME280;45672;51.612;5.536;2022-11-20T05:35:28;101000.41;;;-2.54;97.11
59787;BME280;45672;51.612;5.536;2022-11-20T05:37:54;100996.78;;;-2.52;97.42
59787;BME280;45672;51.612;5.536;2022-11-20T05:40:19;100999.97;;;-2.45;97.24
59787;BME280;45672;51.612;5.536;2022-11-20T05:42:44;100994.47;;;-2.39;97.65
59787;BME280;45672;51.612;5.536;2022-11-20T05:45:09;100991.09;;;-2.41;96.91
59787;BME280;45672;51.612;5.536;2022-11-20T05:47:35;100997.88;;;-2.37;97.21
59787;BME280;45672;51.612;5.536;2022-11-20T05:50:01;100995.91;;;-2.32;96.80
59787;BME280;45672;51.612;5.536;2022-11-20T05:52:29;101008.03;;;-2.31;96.76
59787;BME280;45672;51.612;5.536;2022-11-20T05:54:55;101007.03;;;-2.28;96.85
59787;BME280;45672;51.612;5.536;2022-11-20T05:57:20;101005.09;;;-2.23;96.32
59787;BME280;45672;51.612;5.536;2022-11-20T05:59:45;101005.72;;;-2.18;97.28
59787;BME280;45672;51.612;5.536;2022-11-20T06:02:11;101015.16;;;-2.15;97.35
59787;BME280;45672;51.612;5.536;2022-11-20T06:04:36;101014.03;;;-2.10;96.32
59787;BME280;45672;51.612;5.536;2022-11-20T06:07:01;101018.88;;;-2.02;96.90
59787;BME280;45672;51.612;5.536;2022-11-20T06:09:27;101022.22;;;-1.98;96.48
59787;BME280;45672;51.612;5.536;2022-11-20T06:11:52;101028.25;;;-1.98;96.54
59787;BME280;45672;51.612;5.536;2022-11-20T06:14:17;101024.00;;;-1.99;96.03
59787;BME280;45672;51.612;5.536;2022-11-20T06:16:43;101025.66;;;-1.98;96.05
59787;BME280;45672;51.612;5.536;2022-11-20T06:19:08;101023.78;;;-1.94;95.91
59787;BME280;45672;51.612;5.536;2022-11-20T06:21:33;101032.25;;;-1.89;95.69
59787;BME280;45672;51.612;5.536;2022-11-20T06:23:58;101022.56;;;-1.87;96.20
59787;BME280;45672;51.612;5.536;2022-11-20T06:26:26;101025.81;;;-1.82;95.49
59787;BME280;45672;51.612;5.536;2022-11-20T06:28:53;101025.75;;;-1.80;95.15
59787;BME280;45672;51.612;5.536;2022-11-20T06:31:20;101024.78;;;-1.78;95.84
59787;BME280;45672;51.612;5.536;2022-11-20T06:33:46;101030.00;;;-1.78;95.84
59787;BME280;45672;51.612;5.536;2022-11-20T06:36:13;101016.16;;;-1.80;95.74
59787;BME280;45672;51.612;5.536;2022-11-20T06:38:39;101010.03;;;-1.79;95.84
59787;BME280;45672;51.612;5.536;2022-11-20T06:41:11;101016.88;;;-1.76;96.13
59787;BME280;45672;51.612;5.536;2022-11-20T06:43:37;101031.50;;;-1.74;95.97
59787;BME280;45672;51.612;5.536;2022-11-20T06:46:02;101028.78;;;-1.70;96.04
59787;BME280;45672;51.612;5.536;2022-11-20T06:48:28;101021.66;;;-1.67;96.13
59787;BME280;45672;51.612;5.536;2022-11-20T06:50:54;101016.28;;;-1.64;96.06
59787;BME280;45672;51.612;5.536;2022-11-20T06:53:21;101009.09;;;-1.59;96.33
59787;BME280;45672;51.612;5.536;2022-11-20T06:55:47;101004.03;;;-1.62;96.63
59787;BME280;45672;51.612;5.536;2022-11-20T06:58:14;100996.13;;;-1.60;96.96
59787;BME280;45672;51.612;5.536;2022-11-20T07:00:39;100990.00;;;-1.59;97.08
59787;BME280;45672;51.612;5.536;2022-11-20T07:03:06;100991.47;;;-1.53;96.81
59787;BME280;45672;51.612;5.536;2022-11-20T07:05:32;100994.81;;;-1.51;96.63
59787;BME280;45672;51.612;5.536;2022-11-20T07:07:57;100994.69;;;-1.48;96.40
59787;BME280;45672;51.612;5.536;2022-11-20T07:10:23;100994.81;;;-1.51;96.43
59787;BME280;45672;51.612;5.536;2022-11-20T07:12:49;100992.16;;;-1.50;96.57
59787;BME280;45672;51.612;5.536;2022-11-20T07:15:15;100992.97;;;-1.49;96.98
59787;BME280;45672;51.612;5.536;2022-11-20T07:17:41;100997.22;;;-1.47;97.24
59787;BME280;45672;51.612;5.536;2022-11-20T07:20:06;100988.47;;;-1.46;97.62
59787;BME280;45672;51.612;5.536;2022-11-20T07:22:32;100993.47;;;-1.41;97.21
59787;BME280;45672;51.612;5.536;2022-11-20T07:24:57;100984.09;;;-1.45;97.35
59787;BME280;45672;51.612;5.536;2022-11-20T07:27:22;100992.69;;;-1.43;97.80
59787;BME280;45672;51.612;5.536;2022-11-20T07:29:47;100999.66;;;-1.44;97.09
59787;BME280;45672;51.612;5.536;2022-11-20T07:32:13;100998.75;;;-1.43;97.20
59787;BME280;45672;51.612;5.536;2022-11-20T07:34:38;100987.31;;;-1.40;97.65
59787;BME280;45672;51.612;5.536;2022-11-20T07:37:03;100985.13;;;-1.30;97.75
59787;BME280;45672;51.612;5.536;2022-11-20T07:39:28;100981.13;;;-1.20;97.94
59787;BME280;45672;51.612;5.536;2022-11-20T07:41:54;100980.81;;;-1.14;97.72
59787;BME280;45672;51.612;5.536;2022-11-20T07:44:19;100984.13;;;-1.10;97.19
59787;BME280;45672;51.612;5.536;2022-11-20T07:46:44;100984.75;;;-1.05;97.20
59787;BME280;45672;51.612;5.536;2022-11-20T07:49:09;100988.84;;;-0.99;97.09
59787;BME280;45672;51.612;5.536;2022-11-20T07:51:35;100990.22;;;-0.92;97.40
59787;BME280;45672;51.612;5.536;2022-11-20T07:54:00;100997.97;;;-0.91;97.11
59787;BME280;45672;51.612;5.536;2022-11-20T07:56:25;100994.34;;;-0.88;97.04
59787;BME280;45672;51.612;5.536;2022-11-20T07:58:51;100997.03;;;-0.90;97.05
59787;BME280;45672;51.612;5.536;2022-11-20T08:01:16;100997.81;;;-0.88;97.18
59787;BME280;45672;51.612;5.536;2022-11-20T08:03:41;100990.81;;;-0.87;97.67
59787;BME280;45672;51.612;5.536;2022-11-20T08:06:07;101001.63;;;-0.77;97.47
59787;BME280;45672;51.612;5.536;2022-11-20T08:08:32;100996.13;;;-0.71;97.52
59787;BME280;45672;51.612;5.536;2022-11-20T08:10:58;100989.84;;;-0.68;97.64
59787;BME280;45672;51.612;5.536;2022-11-20T08:13:41;100992.38;;;-0.67;97.04
59787;BME280;45672;51.612;5.536;2022-11-20T08:16:25;100983.88;;;-0.71;97.25
59787;BME280;45672;51.612;5.536;2022-11-20T08:18:51;100984.19;;;-0.59;97.13
59787;BME280;45672;51.612;5.536;2022-11-20T08:21:16;100988.00;;;-0.49;97.47
59787;BME280;45672;51.612;5.536;2022-11-20T08:23:41;100981.59;;;-0.43;96.91
59787;BME280;45672;51.612;5.536;2022-11-20T08:26:07;100978.66;;;-0.37;97.64
59787;BME280;45672;51.612;5.536;2022-11-20T08:28:32;100974.22;;;-0.19;96.79
59787;BME280;45672;51.612;5.536;2022-11-20T08:30:59;100978.09;;;-0.10;96.67
59787;BME280;45672;51.612;5.536;2022-11-20T08:33:25;100976.00;;;-0.04;96.52
59787;BME280;45672;51.612;5.536;2022-11-20T08:35:50;100971.78;;;-0.06;95.75
59787;BME280;45672;51.612;5.536;2022-11-20T08:38:15;100977.44;;;0.02;95.96
59787;BME280;45672;51.612;5.536;2022-11-20T08:40:41;100978.53;;;-0.02;95.82
59787;BME280;45672;51.612;5.536;2022-11-20T08:43:06;100977.00;;;0.10;96.60
59787;BME280;45672;51.612;5.536;2022-11-20T08:45:31;100982.09;;;0.13;95.90
59787;BME280;45672;51.612;5.536;2022-11-20T08:48:00;100991.88;;;0.09;95.82
59787;BME280;45672;51.612;5.536;2022-11-20T08:50:26;100984.53;;;0.16;95.86
59787;BME280;45672;51.612;5.536;2022-11-20T08:52:51;100980.31;;;0.29;96.22
59787;BME280;45672;51.612;5.536;2022-11-20T08:55:16;100976.16;;;0.41;95.88
59787;BME280;45672;51.612;5.536;2022-11-20T08:57:41;100976.47;;;0.51;95.55
59787;BME280;45672;51.612;5.536;2022-11-20T09:00:07;100981.31;;;0.59;95.19
59787;BME280;45672;51.612;5.536;2022-11-20T09:02:33;100979.94;;;0.67;95.03
59787;BME280;45672;51.612;5.536;2022-11-20T09:04:59;100975.28;;;0.73;94.70
59787;BME280;45672;51.612;5.536;2022-11-20T09:07:24;100968.25;;;0.73;94.70
59787;BME280;45672;51.612;5.536;2022-11-20T09:09:50;100969.88;;;0.76;94.70
59787;BME280;45672;51.612;5.536;2022-11-20T09:12:15;100970.50;;;0.79;94.58
59787;BME280;45672;51.612;5.536;2022-11-20T09:14:40;100960.44;;;0.88;94.36
59787;BME280;45672;51.612;5.536;2022-11-20T09:17:06;100966.06;;;0.96;94.39
59787;BME280;45672;51.612;5.536;2022-11-20T09:19:32;100962.16;;;1.03;94.10
59787;BME280;45672;51.612;5.536;2022-11-20T09:21:58;100952.78;;;0.99;94.43
59787;BME280;45672;51.612;5.536;2022-11-20T09:24:25;100965.53;;;1.05;94.55
59787;BME280;45672;51.612;5.536;2022-11-20T09:26:50;100957.66;;;1.05;94.20
59787;BME280;45672;51.612;5.536;2022-11-20T09:29:16;100957.56;;;1.07;94.67
59787;BME280;45672;51.612;5.536;2022-11-20T09:31:41;100945.03;;;1.12;94.55
59787;BME280;45672;51.612;5.536;2022-11-20T09:34:06;100945.72;;;1.15;94.70
59787;BME280;45672;51.612;5.536;2022-11-20T09:36:31;100943.25;;;1.12;94.53
59787;BME280;45672;51.612;5.536;2022-11-20T09:38:57;100944.03;;;1.14;94.68
59787;BME280;45672;51.612;5.536;2022-11-20T09:41:51;100948.88;;;1.20;94.97
59787;BME280;45672;51.612;5.536;2022-11-20T09:44:49;100928.78;;;1.21;95.15
59787;BME280;45672;51.612;5.536;2022-11-20T09:53:28;100936.47;;;1.38;95.39
59787;BME280;45672;51.612;5.536;2022-11-20T09:55:56;100930.94;;;1.43;95.39
59787;BME280;45672;51.612;5.536;2022-11-20T10:01:26;100932.03;;;1.53;95.75
59787;BME280;45672;51.612;5.536;2022-11-20T10:03:58;100926.72;;;1.55;95.68
59787;BME280;45672;51.612;5.536;2022-11-20T10:06:34;100919.78;;;1.54;96.03
59787;BME280;45672;51.612;5.536;2022-11-20T10:17:21;100909.56;;;1.64;96.46
59787;BME280;45672;51.612;5.536;2022-11-20T10:25:20;100877.91;;;1.67;97.33
59787;BME280;45672;51.612;5.536;2022-11-20T10:27:56;100876.97;;;1.68;97.70
59787;BME280;45672;51.612;5.536;2022-11-20T10:30:24;100865.91;;;1.63;97.32
59787;BME280;45672;51.612;5.536;2022-11-20T10:33:13;100859.44;;;1.68;97.70
59787;BME280;45672;51.612;5.536;2022-11-20T10:35:44;100843.50;;;1.71;97.96
59787;BME280;45672;51.612;5.536;2022-11-20T10:38:21;100843.41;;;1.73;98.22
59787;BME280;45672;51.612;5.536;2022-11-20T10:40:54;100836.81;;;1.80;98.12
59787;BME280;45672;51.612;5.536;2022-11-20T10:43:40;100818.25;;;1.83;97.78
59787;BME280;45672;51.612;5.536;2022-11-20T10:46:12;100810.38;;;1.83;98.63
59787;BME280;45672;51.612;5.536;2022-11-20T10:48:41;100813.09;;;1.96;98.81
59787;BME280;45672;51.612;5.536;2022-11-20T10:51:17;100805.44;;;2.06;99.09
59787;BME280;45672;51.612;5.536;2022-11-20T10:56:22;100792.44;;;2.17;98.69
59787;BME280;45672;51.612;5.536;2022-11-20T10:59:03;100794.03;;;2.33;98.48
59787;BME280;45672;51.612;5.536;2022-11-20T11:01:29;100796.69;;;2.46;98.32
59787;BME280;45672;51.612;5.536;2022-11-20T11:03:55;100783.66;;;2.57;98.91
59787;BME280;45672;51.612;5.536;2022-11-20T11:08:53;100783.88;;;2.67;97.50
59787;BME280;45672;51.612;5.536;2022-11-20T11:11:28;100776.09;;;2.65;97.60
59787;BME280;45672;51.612;5.536;2022-11-20T11:14:04;100779.78;;;2.63;97.81
59787;BME280;45672;51.612;5.536;2022-11-20T11:16:29;100770.00;;;2.65;97.27
59787;BME280;45672;51.612;5.536;2022-11-20T11:19:12;100772.75;;;2.50;97.90
59787;BME280;45672;51.612;5.536;2022-11-20T11:21:38;100774.63;;;2.48;98.68
59787;BME280;45672;51.612;5.536;2022-11-20T11:24:26;100768.13;;;2.54;98.92
59787;BME280;45672;51.612;5.536;2022-11-20T11:26:58;100762.84;;;2.54;98.99
59787;BME280;45672;51.612;5.536;2022-11-20T11:29:24;100770.63;;;2.55;98.90
59787;BME280;45672;51.612;5.536;2022-11-20T11:32:28;100763.63;;;2.56;99.63
59787;BME280;45672;51.612;5.536;2022-11-20T11:35:01;100761.81;;;2.56;99.87
59787;BME280;45672;51.612;5.536;2022-11-20T11:37:33;100767.78;;;2.58;100.00
59787;BME280;45672;51.612;5.536;2022-11-20T11:39:59;100760.66;;;2.61;100.00
59787;BME280;45672;51.612;5.536;2022-11-20T11:42:25;100759.72;;;2.62;100.00
59787;BME280;45672;51.612;5.536;2022-11-20T11:44:58;100756.88;;;2.65;100.00
59787;BME280;45672;51.612;5.536;2022-11-20T11:47:37;100751.75;;;2.63;100.00
59787;BME280;45672;51.612;5.536;2022-11-20T11:55:15;100744.13;;;2.71;100.00
59787;BME280;45672;51.612;5.536;2022-11-20T11:58:00;100742.38;;;2.72;100.00
59787;BME280;45672;51.612;5.536;2022-11-20T12:00:29;100736.25;;;2.71;100.00
59787;BME280;45672;51.612;5.536;2022-11-20T12:03:15;100730.19;;;2.71;100.00
59787;BME280;45672;51.612;5.536;2022-11-20T12:05:49;100703.81;;;2.59;100.00
59787;BME280;45672;51.612;5.536;2022-11-20T12:08:43;100704.44;;;2.63;100.00
59787;BME280;45672;51.612;5.536;2022-11-20T12:16:02;100675.88;;;2.46;100.00
59787;BME280;45672;51.612;5.536;2022-11-20T12:18:28;100663.91;;;2.41;100.00
59787;BME280;45672;51.612;5.536;2022-11-20T12:24:05;100660.44;;;2.41;100.00
59787;BME280;45672;51.612;5.536;2022-11-20T12:37:49;100637.66;;;2.41;100.00
59787;BME280;45672;51.612;5.536;2022-11-20T12:40:34;100619.38;;;2.40;100.00
59787;BME280;45672;51.612;5.536;2022-11-20T12:43:20;100621.47;;;2.48;100.00
59787;BME280;45672;51.612;5.536;2022-11-20T12:51:18;100605.00;;;2.70;100.00
59787;BME280;45672;51.612;5.536;2022-11-20T12:53:55;100604.38;;;2.79;100.00
59787;BME280;45672;51.612;5.536;2022-11-20T13:01:50;100583.69;;;2.99;100.00
59787;BME280;45672;51.612;5.536;2022-11-20T13:07:06;100560.81;;;3.12;100.00
59787;BME280;45672;51.612;5.536;2022-11-20T13:09:35;100566.78;;;3.14;100.00
59787;BME280;45672;51.612;5.536;2022-11-20T13:12:10;100561.53;;;3.14;100.00
59787;BME280;45672;51.612;5.536;2022-11-20T13:14:47;100545.03;;;3.12;100.00
59787;BME280;45672;51.612;5.536;2022-11-20T13:17:38;100551.22;;;3.11;100.00
59787;BME280;45672;51.612;5.536;2022-11-20T13:20:13;100542.16;;;3.15;100.00
59787;BME280;45672;51.612;5.536;2022-11-20T13:22:47;100539.41;;;3.17;100.00
59787;BME280;45672;51.612;5.536;2022-11-20T13:25:29;100535.59;;;3.21;100.00
59787;BME280;45672;51.612;5.536;2022-11-20T13:27:58;100519.84;;;3.21;100.00
59787;BME280;45672;51.612;5.536;2022-11-20T13:30:25;100517.09;;;3.22;100.00
59787;BME280;45672;51.612;5.536;2022-11-20T13:32:56;100513.28;;;3.26;100.00
59787;BME280;45672;51.612;5.536;2022-11-20T13:35:28;100517.47;;;3.29;100.00
59787;BME280;45672;51.612;5.536;2022-11-20T13:38:14;100509.97;;;3.36;100.00
59787;BME280;45672;51.612;5.536;2022-11-20T13:41:00;100501.56;;;3.31;100.00
59787;BME280;45672;51.612;5.536;2022-11-20T13:43:49;100500.75;;;3.30;100.00
59787;BME280;45672;51.612;5.536;2022-11-20T13:46:14;100493.69;;;3.31;100.00
59787;BME280;45672;51.612;5.536;2022-11-20T13:48:41;100497.25;;;3.30;100.00
59787;BME280;45672;51.612;5.536;2022-11-20T13:51:37;100490.34;;;3.28;100.00
59787;BME280;45672;51.612;5.536;2022-11-20T13:56:43;100480.63;;;3.18;100.00
59787;BME280;45672;51.612;5.536;2022-11-20T14:02:18;100470.13;;;3.18;100.00
59787;BME280;45672;51.612;5.536;2022-11-20T14:04:47;100472.97;;;3.15;100.00
59787;BME280;45672;51.612;5.536;2022-11-20T14:07:13;100473.81;;;3.15;100.00
59787;BME280;45672;51.612;5.536;2022-11-20T14:09:52;100463.19;;;3.17;100.00
59787;BME280;45672;51.612;5.536;2022-11-20T14:12:21;100454.97;;;3.21;100.00
59787;BME280;45672;51.612;5.536;2022-11-20T14:14:48;100450.78;;;3.19;100.00
59787;BME280;45672;51.612;5.536;2022-11-20T14:17:22;100445.41;;;3.20;100.00
59787;BME280;45672;51.612;5.536;2022-11-20T14:19:49;100447.06;;;3.21;100.00